createdAt,value
2019-03-23T00:00:38.496Z,34.23
2019-03-23T00:03:11.880Z,32.10
2019-03-23T00:05:47.431Z,36.88
2019-03-23T00:08:20.527Z,30.62
2019-03-23T00:10:53.118Z,28.67
2019-03-23T00:13:26.143Z,30.05
2019-03-23T00:15:58.334Z,34.57
2019-03-23T00:18:30.827Z,35.40
2019-03-23T00:21:03.747Z,25.80
2019-03-23T00:23:36.532Z,30.25
2019-03-23T00:26:09.186Z,27.13
2019-03-23T00:28:40.899Z,30.32
2019-03-23T00:31:13.557Z,31.80
2019-03-23T00:33:46.130Z,30.62
2019-03-23T00:36:18.890Z,30.75
2019-03-23T00:38:51.620Z,33.08
2019-03-23T00:41:24.549Z,29.18
2019-03-23T00:43:57.093Z,33.85
2019-03-23T00:46:28.908Z,29.70
2019-03-23T00:49:01.499Z,32.58
2019-03-23T00:51:33.619Z,33.00
2019-03-23T00:54:05.770Z,32.67
2019-03-23T00:56:37.954Z,34.25
2019-03-23T00:59:10.137Z,34.25
2019-03-23T01:01:42.447Z,35.95
2019-03-23T01:04:14.632Z,29.87
2019-03-23T01:06:52.067Z,29.48
2019-03-23T01:09:22.006Z,30.60
2019-03-23T01:11:54.947Z,31.40
2019-03-23T01:14:27.561Z,31.10
2019-03-23T01:17:00.135Z,26.68
2019-03-23T01:19:32.707Z,27.13
2019-03-23T01:22:05.298Z,30.35
2019-03-23T01:24:38.443Z,38.00
2019-03-23T01:27:11.346Z,30.62
2019-03-23T01:29:43.258Z,30.02
2019-03-23T01:32:15.242Z,28.90
2019-03-23T01:34:47.865Z,26.25
2019-03-23T01:37:19.866Z,28.42
2019-03-23T01:39:52.560Z,29.60
2019-03-23T01:42:25.230Z,29.15
2019-03-23T01:44:57.838Z,28.80
2019-03-23T01:47:30.463Z,34.73
2019-03-23T01:50:03.450Z,28.40
2019-03-23T01:52:35.810Z,30.23
2019-03-23T01:55:08.331Z,26.55
2019-03-23T01:57:40.996Z,31.33
2019-03-23T02:00:14.526Z,28.92
2019-03-23T02:02:47.652Z,27.60
2019-03-23T02:05:20.722Z,31.85
2019-03-23T02:07:53.608Z,31.37
2019-03-23T02:10:25.888Z,32.13
2019-03-23T02:12:58.491Z,39.67
2019-03-23T02:15:31.038Z,33.55
2019-03-23T02:18:04.015Z,33.60
2019-03-23T02:20:36.290Z,29.52
2019-03-23T02:23:08.144Z,27.65
2019-03-23T02:25:40.303Z,27.50
2019-03-23T02:28:12.776Z,32.95
2019-03-23T02:30:45.736Z,29.63
2019-03-23T02:33:17.653Z,32.05
2019-03-23T02:35:50.222Z,25.55
2019-03-23T02:38:22.431Z,29.32
2019-03-23T02:40:54.386Z,29.98
2019-03-23T02:43:25.879Z,24.02
2019-03-23T02:45:58.800Z,28.52
2019-03-23T02:48:31.346Z,38.38
2019-03-23T02:51:03.728Z,27.45
2019-03-23T02:53:36.320Z,31.15
2019-03-23T02:56:08.985Z,31.02
2019-03-23T02:58:41.670Z,28.27
2019-03-23T03:01:14.276Z,28.60
2019-03-23T03:03:48.663Z,30.37
2019-03-23T03:06:21.258Z,28.07
2019-03-23T03:08:53.597Z,26.42
2019-03-23T03:11:26.639Z,27.95
2019-03-23T03:13:59.297Z,31.75
2019-03-23T03:16:31.219Z,34.38
2019-03-23T03:19:03.509Z,33.58
2019-03-23T03:21:36.506Z,26.87
2019-03-23T03:24:09.118Z,33.67
2019-03-23T03:26:42.062Z,37.60
2019-03-23T03:29:14.973Z,33.67
2019-03-23T03:31:47.644Z,34.48
2019-03-23T03:34:19.237Z,30.27
2019-03-23T03:36:51.418Z,34.88
2019-03-23T03:39:23.922Z,34.85
2019-03-23T03:41:56.047Z,34.05
2019-03-23T03:44:28.989Z,34.05
2019-03-23T03:47:01.954Z,31.85
2019-03-23T03:49:34.120Z,34.67
2019-03-23T03:52:06.431Z,37.48
2019-03-23T03:54:39.004Z,33.80
2019-03-23T03:57:11.582Z,31.40
2019-03-23T03:59:43.922Z,31.45
2019-03-23T04:02:16.844Z,31.93
2019-03-23T04:04:49.534Z,32.10
2019-03-23T04:07:22.082Z,34.60
2019-03-23T04:09:54.017Z,32.80
2019-03-23T04:12:26.656Z,38.58
2019-03-23T04:14:58.547Z,35.15
2019-03-23T04:17:31.403Z,36.63
2019-03-23T04:20:04.051Z,42.38
2019-03-23T04:22:36.641Z,39.70
2019-03-23T04:25:09.257Z,41.92
2019-03-23T04:27:41.770Z,40.17
2019-03-23T04:30:15.228Z,39.63
2019-03-23T04:32:47.411Z,36.48
2019-03-23T04:35:20.402Z,40.28
2019-03-23T04:37:52.876Z,38.08
2019-03-23T04:40:25.463Z,39.67
2019-03-23T04:42:58.105Z,40.28
2019-03-23T04:45:29.930Z,42.03
2019-03-23T04:48:01.669Z,40.05
2019-03-23T04:50:34.171Z,40.15
2019-03-23T04:53:07.310Z,36.77
2019-03-23T04:55:39.926Z,37.35
2019-03-23T04:58:12.184Z,45.92
2019-03-23T05:00:44.237Z,37.25
2019-03-23T05:03:16.176Z,36.30
2019-03-23T05:05:48.711Z,41.37
2019-03-23T05:08:21.281Z,36.15
2019-03-23T05:10:53.467Z,39.18
2019-03-23T05:13:25.384Z,39.15
2019-03-23T05:15:58.383Z,37.28
2019-03-23T05:18:30.673Z,38.55
2019-03-23T05:21:03.255Z,35.25
2019-03-23T05:23:35.976Z,40.90
2019-03-23T05:26:08.212Z,33.60
2019-03-23T05:28:40.122Z,38.30
2019-03-23T05:31:12.835Z,31.95
2019-03-23T05:33:45.467Z,36.28
2019-03-23T05:36:18.464Z,35.75
2019-03-23T05:38:51.034Z,33.78
2019-03-23T05:41:23.421Z,37.30
2019-03-23T05:43:55.421Z,34.20
2019-03-23T05:46:28.163Z,35.95
2019-03-23T05:49:00.795Z,33.60
2019-03-23T05:51:33.465Z,34.78
2019-03-23T05:54:06.412Z,35.30
2019-03-23T05:56:38.997Z,37.78
2019-03-23T05:59:11.171Z,35.95
2019-03-23T06:01:43.121Z,32.60
2019-03-23T06:04:15.655Z,38.67
2019-03-23T06:06:48.301Z,38.38
2019-03-23T06:09:20.520Z,35.50
2019-03-23T06:11:53.061Z,30.75
2019-03-23T06:14:24.540Z,35.00
2019-03-23T06:16:56.131Z,35.10
2019-03-23T06:19:29.063Z,37.40
2019-03-23T06:22:50.648Z,37.30
2019-03-23T06:25:23.812Z,40.10
2019-03-23T06:27:56.362Z,35.65
2019-03-23T06:30:28.613Z,37.88
2019-03-23T06:33:00.874Z,32.20
2019-03-23T06:35:33.467Z,33.73
2019-03-23T06:38:07.283Z,32.73
2019-03-23T06:40:40.657Z,35.45
2019-03-23T06:43:13.524Z,34.53
2019-03-23T06:45:45.731Z,33.40
2019-03-23T06:48:23.937Z,35.50
2019-03-23T06:51:25.907Z,34.80
2019-03-23T06:55:52.495Z,32.55
2019-03-23T06:57:40.438Z,31.45
2019-03-23T07:00:13.677Z,34.63
2019-03-23T07:02:45.673Z,36.08
2019-03-23T07:05:17.785Z,30.92
2019-03-23T07:07:50.440Z,46.65
2019-03-23T07:10:23.383Z,33.02
2019-03-23T07:12:55.701Z,50.95
2019-03-23T07:15:28.638Z,37.55
2019-03-23T07:18:00.957Z,34.40
2019-03-23T07:20:33.465Z,32.95
2019-03-23T07:23:05.631Z,29.25
2019-03-23T07:25:38.363Z,40.50
2019-03-23T07:28:11.266Z,40.40
2019-03-23T07:30:44.209Z,29.60
2019-03-23T07:33:16.583Z,35.33
2019-03-23T07:35:49.236Z,36.83
2019-03-23T07:38:21.934Z,30.27
2019-03-23T07:40:54.043Z,35.92
2019-03-23T07:43:27.107Z,32.33
2019-03-23T07:45:59.550Z,41.58
2019-03-23T07:48:38.277Z,35.08
2019-03-23T07:51:10.864Z,30.70
2019-03-23T07:53:43.605Z,33.48
2019-03-23T07:56:16.281Z,31.55
2019-03-23T07:58:48.155Z,33.50
2019-03-23T08:01:21.136Z,35.70
2019-03-23T08:04:13.755Z,34.95
2019-03-23T08:06:46.146Z,35.95
2019-03-23T08:09:20.749Z,31.13
2019-03-23T08:11:52.879Z,31.40
2019-03-23T08:14:24.797Z,33.53
2019-03-23T08:16:57.905Z,40.83
2019-03-23T08:19:30.798Z,32.03
2019-03-23T08:22:03.371Z,32.53
2019-03-23T08:24:36.547Z,33.87
2019-03-23T08:27:08.868Z,33.73
2019-03-23T08:29:41.775Z,29.27
2019-03-23T08:32:13.690Z,35.13
2019-03-23T08:34:45.541Z,32.53
2019-03-23T08:37:19.356Z,32.47
2019-03-23T08:39:51.703Z,31.00
2019-03-23T08:42:23.977Z,35.07
2019-03-23T08:44:55.904Z,36.00
2019-03-23T08:47:29.816Z,39.83
2019-03-23T08:50:01.698Z,32.63
2019-03-23T08:52:34.340Z,39.10
2019-03-23T08:55:06.861Z,41.83
2019-03-23T08:57:41.339Z,34.90
2019-03-23T09:00:13.919Z,40.30
2019-03-23T09:02:46.218Z,38.90
2019-03-23T09:05:18.578Z,41.93
2019-03-23T09:07:52.598Z,36.57
2019-03-23T09:10:24.985Z,30.43
2019-03-23T09:12:57.680Z,33.80
2019-03-23T09:15:35.361Z,35.43
2019-03-23T09:18:17.215Z,39.00
2019-03-23T09:20:49.441Z,35.43
2019-03-23T09:23:22.389Z,33.53
2019-03-23T09:25:54.584Z,34.67
2019-03-23T09:28:27.178Z,34.10
2019-03-23T09:30:59.465Z,34.60
2019-03-23T09:33:31.389Z,40.97
2019-03-23T09:36:03.789Z,38.17
2019-03-23T09:38:36.475Z,44.93
2019-03-23T09:41:09.085Z,37.90
2019-03-23T09:43:41.420Z,43.27
2019-03-23T09:46:13.846Z,38.27
2019-03-23T09:48:46.044Z,39.53
2019-03-23T09:51:18.483Z,37.37
2019-03-23T09:53:50.757Z,41.10
2019-03-23T09:56:22.665Z,38.90
2019-03-23T09:58:55.240Z,35.67
2019-03-23T10:01:27.356Z,39.77
2019-03-23T10:03:59.754Z,41.50
2019-03-23T10:06:33.006Z,42.93
2019-03-23T10:09:08.085Z,39.90
2019-03-23T10:11:41.575Z,46.37
2019-03-23T10:14:14.653Z,43.07
2019-03-23T10:16:47.060Z,39.17
2019-03-23T10:19:19.659Z,44.73
2019-03-23T10:21:51.997Z,40.43
2019-03-23T10:24:24.452Z,43.30
2019-03-23T10:26:58.083Z,43.30
2019-03-23T10:29:30.757Z,44.17
2019-03-23T10:32:02.711Z,40.57
2019-03-23T10:34:35.401Z,51.53
2019-03-23T10:37:07.997Z,47.87
2019-03-23T10:39:40.502Z,39.67
2019-03-23T10:42:13.317Z,45.63
2019-03-23T10:44:45.948Z,43.47
2019-03-23T10:47:19.251Z,45.87
2019-03-23T10:49:52.070Z,48.30
2019-03-23T10:52:25.050Z,46.43
2019-03-23T10:54:57.963Z,47.13
2019-03-23T10:57:30.870Z,45.83
2019-03-23T11:00:03.600Z,45.20
2019-03-23T11:02:35.051Z,41.10
2019-03-23T11:05:08.121Z,39.13
2019-03-23T11:07:40.841Z,43.43
2019-03-23T11:10:13.567Z,41.80
2019-03-23T11:12:45.724Z,40.60
2019-03-23T11:15:17.999Z,40.00
2019-03-23T11:17:50.007Z,43.50
2019-03-23T11:20:23.223Z,40.37
2019-03-23T11:22:55.142Z,40.13
2019-03-23T11:25:27.462Z,36.60
2019-03-23T11:27:59.603Z,36.17
2019-03-23T11:30:32.170Z,37.63
2019-03-23T11:33:05.236Z,35.67
2019-03-23T11:35:37.583Z,43.67
2019-03-23T11:38:09.983Z,37.00
2019-03-23T11:40:52.179Z,36.70
2019-03-23T11:43:17.168Z,39.70
2019-03-23T11:45:49.866Z,34.60
2019-03-23T11:48:22.168Z,34.17
2019-03-23T11:50:55.031Z,34.83
2019-03-23T11:53:27.754Z,36.67
2019-03-23T11:55:59.912Z,42.13
2019-03-23T11:58:31.774Z,36.40
2019-03-23T12:01:04.756Z,33.73
2019-03-23T12:03:36.965Z,29.67
2019-03-23T12:06:09.585Z,32.23
2019-03-23T12:08:42.309Z,35.90
2019-03-23T12:11:15.441Z,34.40
2019-03-23T12:13:48.695Z,32.27
2019-03-23T12:16:20.617Z,34.73
2019-03-23T12:18:52.970Z,37.53
2019-03-23T12:21:24.916Z,34.40
2019-03-23T12:23:57.870Z,35.97
2019-03-23T12:26:30.210Z,36.90
2019-03-23T12:29:03.183Z,37.87
2019-03-23T12:31:35.739Z,36.17
2019-03-23T12:34:08.086Z,37.47
2019-03-23T12:36:40.934Z,36.27
2019-03-23T12:39:12.775Z,37.20
2019-03-23T12:41:45.387Z,34.83
2019-03-23T12:44:17.348Z,37.30
2019-03-23T12:46:49.656Z,33.20
2019-03-23T12:49:22.218Z,32.53
2019-03-23T12:51:54.798Z,34.43
2019-03-23T12:54:26.931Z,36.03
2019-03-23T12:56:59.860Z,39.37
2019-03-23T12:59:32.170Z,40.67
2019-03-23T13:02:05.196Z,33.03
2019-03-23T13:04:37.775Z,36.63
2019-03-23T13:07:10.221Z,34.77
2019-03-23T13:09:43.038Z,37.13
2019-03-23T13:12:15.646Z,34.87
2019-03-23T13:14:47.655Z,37.30
2019-03-23T13:17:20.696Z,36.03
2019-03-23T13:19:53.248Z,35.43
2019-03-23T13:22:25.966Z,38.83
2019-03-23T13:24:58.629Z,34.20
2019-03-23T13:27:31.044Z,37.37
2019-03-23T13:30:03.691Z,35.20
2019-03-23T13:32:36.320Z,31.40
2019-03-23T13:35:09.687Z,32.03
2019-03-23T13:37:42.653Z,33.50
2019-03-23T13:40:14.852Z,35.87
2019-03-23T13:42:47.191Z,35.10
2019-03-23T13:45:20.867Z,39.20
2019-03-23T13:47:54.896Z,36.30
2019-03-23T13:50:31.773Z,37.57
2019-03-23T13:53:04.763Z,41.43
2019-03-23T13:55:37.459Z,35.60
2019-03-23T13:58:13.925Z,38.47
2019-03-23T14:00:46.290Z,37.80
2019-03-23T14:03:18.674Z,35.97
2019-03-23T14:05:51.648Z,39.03
2019-03-23T14:08:24.285Z,38.80
2019-03-23T14:10:57.215Z,37.40
2019-03-23T14:13:29.280Z,39.80
2019-03-23T14:16:02.111Z,36.40
2019-03-23T14:18:35.785Z,39.07
2019-03-23T14:21:08.234Z,34.97
2019-03-23T14:23:40.259Z,38.60
2019-03-23T14:26:12.458Z,36.63
2019-03-23T14:28:44.817Z,35.23
2019-03-23T14:31:19.986Z,33.20
2019-03-23T14:33:55.124Z,36.53
2019-03-23T14:36:32.339Z,39.57
2019-03-23T14:39:05.983Z,36.13
2019-03-23T14:41:41.098Z,34.43
2019-03-23T14:44:14.267Z,33.60
2019-03-23T14:46:46.585Z,35.00
2019-03-23T14:49:19.244Z,34.07
2019-03-23T14:51:51.841Z,38.90
2019-03-23T14:54:24.126Z,35.70
2019-03-23T14:56:56.791Z,38.97
2019-03-23T14:59:29.442Z,38.07
2019-03-23T15:02:02.413Z,38.00
2019-03-23T15:04:34.735Z,43.60
2019-03-23T15:07:07.786Z,36.70
2019-03-23T15:09:40.545Z,37.33
2019-03-23T15:12:15.222Z,38.93
2019-03-23T15:14:46.955Z,41.30
2019-03-23T15:17:19.134Z,39.13
2019-03-23T15:19:52.175Z,38.77
2019-03-23T15:22:24.834Z,41.43
2019-03-23T15:24:57.114Z,42.20
2019-03-23T15:27:29.346Z,37.00
2019-03-23T15:30:02.011Z,41.00
2019-03-23T15:32:34.481Z,41.37
2019-03-23T15:35:07.480Z,38.57
2019-03-23T15:37:39.299Z,46.00
2019-03-23T15:40:12.262Z,41.70
2019-03-23T15:42:44.289Z,43.87
2019-03-23T15:45:16.675Z,46.93
2019-03-23T15:47:49.263Z,44.47
2019-03-23T15:50:21.938Z,43.87
2019-03-23T15:52:54.886Z,48.20
2019-03-23T15:55:27.389Z,47.80
2019-03-23T15:57:59.634Z,45.33
2019-03-23T16:00:31.964Z,51.70
2019-03-23T16:03:04.620Z,52.40
2019-03-23T16:05:37.507Z,48.67
2019-03-23T16:08:10.278Z,50.97
2019-03-23T16:10:42.253Z,51.30
2019-03-23T16:13:15.273Z,50.97
2019-03-23T16:15:46.973Z,63.80
2019-03-23T16:18:19.331Z,65.93
2019-03-23T16:20:52.065Z,62.57
2019-03-23T16:23:24.620Z,69.00
2019-03-23T16:25:56.920Z,62.87
2019-03-23T16:28:29.325Z,87.00
2019-03-23T16:31:01.989Z,66.53
2019-03-23T16:33:34.289Z,62.43
2019-03-23T16:36:07.989Z,69.23
2019-03-23T16:38:40.705Z,62.47
2019-03-23T16:41:13.795Z,64.73
2019-03-23T16:43:45.054Z,67.40
2019-03-23T16:46:18.024Z,62.97
2019-03-23T16:48:50.469Z,69.07
2019-03-23T16:51:22.392Z,69.27
2019-03-23T16:53:55.009Z,66.77
2019-03-23T16:56:27.518Z,66.90
2019-03-23T16:59:00.345Z,71.00
2019-03-23T17:01:32.159Z,67.50
2019-03-23T17:04:06.520Z,65.87
2019-03-23T17:06:46.333Z,64.70
2019-03-23T17:09:13.503Z,65.43
2019-03-23T17:11:46.456Z,67.83
2019-03-23T17:14:19.192Z,70.43
2019-03-23T17:16:51.796Z,62.40
2019-03-23T17:19:24.704Z,59.40
2019-03-23T17:21:57.035Z,75.00
2019-03-23T17:24:28.876Z,61.57
2019-03-23T17:27:01.603Z,65.80
2019-03-23T17:29:34.502Z,66.87
2019-03-23T17:32:07.159Z,70.63
2019-03-23T17:34:39.755Z,69.77
2019-03-23T17:37:12.436Z,70.80
2019-03-23T17:39:44.744Z,74.30
2019-03-23T17:42:17.426Z,84.40
2019-03-23T17:44:49.336Z,88.93
2019-03-23T17:47:21.765Z,86.97
2019-03-23T17:49:54.439Z,97.93
2019-03-23T17:52:26.693Z,102.37
2019-03-23T17:54:58.787Z,102.27
2019-03-23T17:57:31.837Z,103.53
2019-03-23T18:00:05.011Z,108.73
2019-03-23T18:02:37.514Z,99.03
2019-03-23T18:05:12.056Z,98.57
2019-03-23T18:07:44.908Z,95.30
2019-03-23T18:10:16.827Z,99.47
2019-03-23T18:12:49.370Z,102.50
2019-03-23T18:15:21.615Z,109.10
2019-03-23T18:17:54.424Z,101.80
2019-03-23T18:20:26.794Z,106.10
2019-03-23T18:22:59.176Z,107.27
2019-03-23T18:25:31.890Z,111.90
2019-03-23T18:28:04.307Z,119.10
2019-03-23T18:30:44.543Z,106.90
2019-03-23T18:33:17.737Z,116.97
2019-03-23T18:35:49.390Z,118.83
2019-03-23T18:38:22.121Z,138.27
2019-03-23T18:40:54.973Z,124.13
2019-03-23T18:43:28.058Z,131.33
2019-03-23T18:46:00.502Z,131.97
2019-03-23T18:48:32.881Z,127.10
2019-03-23T18:51:05.647Z,126.47
2019-03-23T18:53:38.605Z,123.60
2019-03-23T18:56:11.294Z,125.43
2019-03-23T18:58:44.377Z,126.10
2019-03-23T19:01:16.921Z,144.63
2019-03-23T19:03:49.762Z,130.77
2019-03-23T19:06:22.592Z,123.30
2019-03-23T19:08:55.462Z,136.17
2019-03-23T19:11:28.733Z,124.20
2019-03-23T19:14:01.398Z,132.93
2019-03-23T19:16:34.310Z,145.90
2019-03-23T19:19:06.899Z,137.87
2019-03-23T19:21:39.006Z,132.87
2019-03-23T19:24:11.916Z,126.00
2019-03-23T19:26:44.915Z,126.13
2019-03-23T19:29:17.866Z,149.97
2019-03-23T19:31:50.791Z,142.17
2019-03-23T19:34:22.697Z,149.10
2019-03-23T19:36:55.520Z,142.67
2019-03-23T19:39:28.747Z,143.37
2019-03-23T19:42:01.427Z,149.63
2019-03-23T19:44:33.591Z,151.03
2019-03-23T19:47:07.067Z,148.13
2019-03-23T19:49:39.595Z,146.40
2019-03-23T19:52:11.847Z,144.40
2019-03-23T19:54:44.687Z,136.00
2019-03-23T19:57:17.085Z,147.93
2019-03-23T19:59:49.379Z,159.03
2019-03-23T20:02:21.711Z,158.53
2019-03-23T20:04:55.969Z,151.40
2019-03-23T20:07:32.994Z,144.10
2019-03-23T20:10:03.805Z,149.13
2019-03-23T20:12:37.574Z,155.63
2019-03-23T20:15:11.226Z,154.10
2019-03-23T20:17:44.948Z,148.60
2019-03-23T20:20:20.061Z,155.77
2019-03-23T20:22:53.835Z,147.63
2019-03-23T20:25:27.933Z,145.10
2019-03-23T20:28:00.267Z,143.10
2019-03-23T20:30:34.041Z,152.13
2019-03-23T20:33:06.666Z,147.22
2019-03-23T20:35:39.262Z,158.57
2019-03-23T20:38:12.571Z,155.30
2019-03-23T20:40:45.892Z,148.02
2019-03-23T20:43:18.866Z,155.03
2019-03-23T20:45:52.251Z,154.57
2019-03-23T20:48:28.097Z,163.10
2019-03-23T20:51:00.231Z,156.93
2019-03-23T20:53:32.117Z,151.47
2019-03-23T20:56:04.718Z,161.37
2019-03-23T20:58:37.149Z,151.07
2019-03-23T21:01:09.946Z,150.10
2019-03-23T21:03:42.203Z,152.73
2019-03-23T21:06:14.263Z,151.40
2019-03-23T21:08:46.417Z,155.03
2019-03-23T21:11:19.517Z,155.67
2019-03-23T21:13:52.151Z,160.73
2019-03-23T21:16:24.123Z,161.13
2019-03-23T21:18:57.125Z,178.33
2019-03-23T21:21:29.727Z,164.70
2019-03-23T21:24:02.703Z,162.00
2019-03-23T21:26:35.639Z,165.50
2019-03-23T21:29:07.641Z,157.60
2019-03-23T21:31:40.274Z,164.73
2019-03-23T21:34:12.542Z,153.13
2019-03-23T21:36:44.695Z,152.40
2019-03-23T21:39:17.045Z,156.20
2019-03-23T21:41:49.680Z,159.53
2019-03-23T21:44:30.609Z,153.17
2019-03-23T21:46:56.219Z,147.40
2019-03-23T21:49:28.834Z,153.23
2019-03-23T21:52:00.656Z,166.77
2019-03-23T21:54:32.818Z,153.33
2019-03-23T21:57:05.424Z,164.07
2019-03-23T21:59:38.099Z,144.73
2019-03-23T22:02:11.111Z,156.50
2019-03-23T22:04:43.502Z,153.77
2019-03-23T22:07:16.483Z,161.60
2019-03-23T22:09:49.430Z,155.33
2019-03-23T22:12:21.590Z,152.43
2019-03-23T22:14:54.226Z,149.83
2019-03-23T22:17:27.461Z,152.50
2019-03-23T22:19:59.628Z,156.73
2019-03-23T22:22:32.577Z,144.30
2019-03-23T22:25:04.554Z,155.10
2019-03-23T22:27:36.634Z,153.07
2019-03-23T22:30:12.298Z,157.20
2019-03-23T22:32:44.977Z,159.10
2019-03-23T22:35:16.693Z,159.70
2019-03-23T22:37:49.284Z,157.47
2019-03-23T22:40:21.915Z,158.00
2019-03-23T22:42:53.862Z,154.25
2019-03-23T22:45:25.828Z,156.37
2019-03-23T22:47:58.499Z,159.73
2019-03-23T22:50:30.910Z,150.03
2019-03-23T22:53:03.595Z,156.77
2019-03-23T22:55:36.328Z,155.45
2019-03-23T22:58:09.007Z,145.83
2019-03-23T23:00:45.833Z,160.20
2019-03-23T23:03:18.485Z,159.82
2019-03-23T23:05:51.264Z,168.05
2019-03-23T23:08:23.767Z,162.60
2019-03-23T23:10:56.136Z,165.52
2019-03-23T23:13:28.948Z,150.82
2019-03-23T23:16:01.411Z,144.60
2019-03-23T23:18:34.056Z,148.87
2019-03-23T23:21:06.613Z,152.12
2019-03-23T23:23:39.225Z,161.68
2019-03-23T23:26:11.351Z,154.18
2019-03-23T23:28:43.946Z,147.02
2019-03-23T23:31:16.644Z,167.80
2019-03-23T23:33:49.196Z,153.68
2019-03-23T23:36:21.609Z,157.20
2019-03-23T23:38:54.692Z,151.35
2019-03-23T23:41:27.128Z,161.20
2019-03-23T23:43:59.839Z,159.10
2019-03-23T23:46:53.383Z,154.97
2019-03-23T23:49:36.010Z,158.25
2019-03-23T23:52:07.912Z,154.32
2019-03-23T23:54:49.214Z,145.35
2019-03-23T23:57:24.081Z,155.90
2019-03-23T23:59:58.584Z,156.20
